createdAt,value
2023-04-16T00:01:24.399Z,1.48
2023-04-16T00:03:52.952Z,1.52
2023-04-16T00:06:21.435Z,1.20
2023-04-16T00:08:50.441Z,1.58
2023-04-16T00:11:18.904Z,1.80
2023-04-16T00:13:47.152Z,1.70
2023-04-16T00:16:15.445Z,1.30
2023-04-16T00:18:43.846Z,1.80
2023-04-16T00:21:12.381Z,1.80
2023-04-16T00:23:40.721Z,1.40
2023-04-16T00:26:09.664Z,1.30
2023-04-16T00:28:38.939Z,1.33
2023-04-16T00:31:07.220Z,1.33
2023-04-16T00:33:35.556Z,1.45
2023-04-16T00:36:04.056Z,1.25
2023-04-16T00:38:32.698Z,1.42
2023-04-16T00:41:01.074Z,1.80
2023-04-16T00:43:36.520Z,2.17
2023-04-16T00:46:09.078Z,2.75
2023-04-16T00:48:39.846Z,2.67
2023-04-16T00:51:08.839Z,2.58
2023-04-16T00:53:37.672Z,2.95
2023-04-16T00:56:07.363Z,2.40
2023-04-16T00:58:36.193Z,1.55
2023-04-16T01:01:05.133Z,1.73
2023-04-16T01:03:43.794Z,1.40
2023-04-16T01:06:12.685Z,1.00
2023-04-16T01:08:41.400Z,1.30
2023-04-16T01:11:12.150Z,1.00
2023-04-16T01:13:40.831Z,1.17
2023-04-16T01:16:11.316Z,1.15
2023-04-16T01:18:39.787Z,1.30
2023-04-16T01:21:08.282Z,0.95
2023-04-16T01:23:36.498Z,1.33
2023-04-16T01:26:05.089Z,1.38
2023-04-16T01:28:33.368Z,1.13
2023-04-16T01:31:01.791Z,1.73
2023-04-16T01:33:40.503Z,1.40
2023-04-16T01:36:09.123Z,1.48
2023-04-16T01:38:37.408Z,1.40
2023-04-16T01:41:05.750Z,1.40
2023-04-16T01:43:34.039Z,1.50
2023-04-16T01:46:33.403Z,1.75
2023-04-16T01:49:02.752Z,1.35
2023-04-16T01:51:32.231Z,1.58
2023-04-16T01:54:01.051Z,1.67
2023-04-16T01:56:29.348Z,1.70
2023-04-16T01:58:57.672Z,1.60
2023-04-16T02:01:29.275Z,1.52
2023-04-16T02:03:58.404Z,1.42
2023-04-16T02:06:27.530Z,2.22
2023-04-16T02:08:55.927Z,1.90
2023-04-16T02:11:24.161Z,1.40
2023-04-16T02:13:52.676Z,1.88
2023-04-16T02:16:21.454Z,1.58
2023-04-16T02:18:56.006Z,2.05
2023-04-16T02:21:25.957Z,1.90
2023-04-16T02:23:54.312Z,2.45
2023-04-16T02:26:29.249Z,2.25
2023-04-16T02:29:01.539Z,2.17
2023-04-16T02:31:38.602Z,1.88
2023-04-16T02:34:07.939Z,2.25
2023-04-16T02:36:36.348Z,1.98
2023-04-16T02:39:04.827Z,2.00
2023-04-16T02:41:33.231Z,2.50
2023-04-16T02:44:01.655Z,2.60
2023-04-16T02:46:30.045Z,2.28
2023-04-16T02:48:58.277Z,2.40
2023-04-16T02:51:26.518Z,2.00
2023-04-16T02:53:54.911Z,2.30
2023-04-16T02:56:23.210Z,2.80
2023-04-16T02:58:51.451Z,2.30
2023-04-16T03:01:19.765Z,2.42
2023-04-16T03:03:48.137Z,2.35
2023-04-16T03:06:16.394Z,2.42
2023-04-16T03:08:44.781Z,2.42
2023-04-16T03:11:13.020Z,2.60
2023-04-16T03:13:41.346Z,2.40
2023-04-16T03:16:09.610Z,2.67
2023-04-16T03:18:37.945Z,2.47
2023-04-16T03:21:06.456Z,2.40
2023-04-16T03:23:35.862Z,2.42
2023-04-16T03:26:04.115Z,2.75
2023-04-16T03:28:32.826Z,3.08
2023-04-16T03:31:01.806Z,2.95
2023-04-16T03:33:30.430Z,2.72
2023-04-16T03:35:59.269Z,2.50
2023-04-16T03:38:31.026Z,2.60
2023-04-16T03:41:00.685Z,2.50
2023-04-16T03:43:32.412Z,2.47
2023-04-16T03:46:00.878Z,2.90
2023-04-16T03:48:29.268Z,2.80
2023-04-16T03:50:57.645Z,2.63
2023-04-16T03:53:26.197Z,2.60
2023-04-16T03:55:54.407Z,2.50
2023-04-16T03:58:23.600Z,2.55
2023-04-16T04:00:56.167Z,2.67
2023-04-16T04:03:26.519Z,2.92
2023-04-16T04:05:56.403Z,2.75
2023-04-16T04:08:30.926Z,2.40
2023-04-16T04:10:59.463Z,2.78
2023-04-16T04:13:28.113Z,2.40
2023-04-16T04:16:00.445Z,2.75
2023-04-16T04:18:29.728Z,2.67
2023-04-16T04:20:58.014Z,2.95
2023-04-16T04:23:29.730Z,2.63
2023-04-16T04:25:58.117Z,2.53
2023-04-16T04:28:26.445Z,2.40
2023-04-16T04:30:54.870Z,2.25
2023-04-16T04:33:23.210Z,2.30
2023-04-16T04:35:52.732Z,2.40
2023-04-16T04:38:25.297Z,2.38
2023-04-16T04:40:54.264Z,2.40
2023-04-16T04:43:25.062Z,2.05
2023-04-16T04:45:53.358Z,2.58
2023-04-16T04:48:26.261Z,2.83
2023-04-16T04:50:54.906Z,2.83
2023-04-16T04:53:23.148Z,3.38
2023-04-16T04:55:54.251Z,3.55
2023-04-16T04:58:25.888Z,3.35
2023-04-16T05:00:54.239Z,2.67
2023-04-16T05:03:22.776Z,3.67
2023-04-16T05:05:51.353Z,3.80
2023-04-16T05:08:19.594Z,3.20
2023-04-16T05:10:47.779Z,3.03
2023-04-16T05:13:16.023Z,3.05
2023-04-16T05:15:45.782Z,3.33
2023-04-16T05:18:14.036Z,2.80
2023-04-16T05:20:42.304Z,2.45
2023-04-16T05:23:10.571Z,2.60
2023-04-16T05:25:38.858Z,2.50
2023-04-16T05:28:07.141Z,3.80
2023-04-16T05:30:35.407Z,2.90
2023-04-16T05:33:03.844Z,2.90
2023-04-16T05:35:32.066Z,3.20
2023-04-16T05:38:00.385Z,3.25
2023-04-16T05:40:28.601Z,2.65
2023-04-16T05:42:56.926Z,2.70
2023-04-16T05:45:27.475Z,2.75
2023-04-16T05:47:56.365Z,2.97
2023-04-16T05:50:24.645Z,2.97
2023-04-16T05:52:52.857Z,3.20
2023-04-16T05:55:21.208Z,2.30
2023-04-16T05:57:49.442Z,2.33
2023-04-16T06:00:18.090Z,2.58
2023-04-16T06:02:46.352Z,2.63
2023-04-16T06:05:15.022Z,2.08
2023-04-16T06:07:43.480Z,2.35
2023-04-16T06:10:11.954Z,2.05
2023-04-16T06:12:40.527Z,3.00
2023-04-16T06:15:09.282Z,2.17
2023-04-16T06:17:37.498Z,2.20
2023-04-16T06:20:06.266Z,2.28
2023-04-16T06:22:34.650Z,2.03
2023-04-16T06:25:02.984Z,3.05
2023-04-16T06:27:32.055Z,2.28
2023-04-16T06:30:00.255Z,1.90
2023-04-16T06:32:28.703Z,2.30
2023-04-16T06:34:58.819Z,2.10
2023-04-16T06:37:27.172Z,1.88
2023-04-16T06:39:55.405Z,2.08
2023-04-16T06:42:24.132Z,1.75
2023-04-16T06:44:52.507Z,2.30
2023-04-16T06:47:21.171Z,2.50
2023-04-16T06:49:49.422Z,2.63
2023-04-16T06:52:17.623Z,3.40
2023-04-16T06:54:45.868Z,2.60
2023-04-16T06:57:14.110Z,3.08
2023-04-16T06:59:42.789Z,4.10
2023-04-16T07:02:11.682Z,4.40
2023-04-16T07:04:40.006Z,4.00
2023-04-16T07:07:08.705Z,3.20
2023-04-16T07:09:36.946Z,3.08
2023-04-16T07:12:05.721Z,3.10
2023-04-16T07:14:34.205Z,3.28
2023-04-16T07:17:02.397Z,3.35
2023-04-16T07:19:32.778Z,3.72
2023-04-16T07:22:01.608Z,3.10
2023-04-16T07:24:30.065Z,3.40
2023-04-16T07:27:01.429Z,3.20
2023-04-16T07:29:29.668Z,3.00
2023-04-16T07:31:58.477Z,3.20
2023-04-16T07:34:26.730Z,3.42
2023-04-16T07:36:54.911Z,2.90
2023-04-16T07:39:23.266Z,3.40
2023-04-16T07:41:51.533Z,3.30
2023-04-16T07:44:19.770Z,3.13
2023-04-16T07:46:47.998Z,3.60
2023-04-16T07:49:16.414Z,3.38
2023-04-16T07:51:44.739Z,3.53
2023-04-16T07:54:13.008Z,3.28
2023-04-16T07:56:41.257Z,3.10
2023-04-16T07:59:21.816Z,3.08
2023-04-16T08:01:53.064Z,3.70
2023-04-16T08:04:25.084Z,3.50
2023-04-16T08:06:54.529Z,3.28
2023-04-16T08:09:26.614Z,3.63
2023-04-16T08:11:54.859Z,4.53
2023-04-16T08:14:23.234Z,2.97
2023-04-16T08:16:51.455Z,3.70
2023-04-16T08:19:19.790Z,3.10
2023-04-16T08:21:48.347Z,2.85
2023-04-16T08:24:16.749Z,2.00
2023-04-16T08:26:45.012Z,2.25
2023-04-16T08:29:13.387Z,2.38
2023-04-16T08:31:42.171Z,1.42
2023-04-16T08:34:11.510Z,1.52
2023-04-16T08:36:40.888Z,1.23
2023-04-16T08:39:09.362Z,1.15
2023-04-16T08:41:42.330Z,1.30
2023-04-16T08:44:25.628Z,1.25
2023-04-16T08:46:58.319Z,1.33
2023-04-16T08:49:27.564Z,1.40
2023-04-16T08:51:56.818Z,1.45
2023-04-16T08:54:37.005Z,1.75
2023-04-16T08:57:08.811Z,1.75
2023-04-16T08:59:38.909Z,2.22
2023-04-16T09:02:07.567Z,1.80
2023-04-16T09:04:38.550Z,1.50
2023-04-16T09:07:09.489Z,1.55
2023-04-16T09:09:39.717Z,1.50
2023-04-16T09:12:08.896Z,1.50
2023-04-16T09:14:38.280Z,1.58
2023-04-16T09:17:07.339Z,1.63
2023-04-16T09:19:35.704Z,1.35
2023-04-16T09:22:03.962Z,1.55
2023-04-16T09:24:33.487Z,1.75
2023-04-16T09:27:02.530Z,1.75
2023-04-16T09:29:38.649Z,1.70
2023-04-16T09:32:11.724Z,1.85
2023-04-16T09:34:57.485Z,2.15
2023-04-16T09:37:29.717Z,2.05
2023-04-16T09:40:01.784Z,2.05
2023-04-16T09:42:32.858Z,2.20
2023-04-16T09:45:02.795Z,2.30
2023-04-16T09:47:44.506Z,2.90
2023-04-16T09:50:18.575Z,2.40
2023-04-16T09:52:53.341Z,2.88
2023-04-16T09:55:27.355Z,3.03
2023-04-16T09:58:02.072Z,3.17
2023-04-16T10:00:33.910Z,2.50
2023-04-16T10:03:08.395Z,3.00
2023-04-16T10:05:37.049Z,2.65
2023-04-16T10:08:13.177Z,2.78
2023-04-16T10:10:41.985Z,2.50
2023-04-16T10:13:10.933Z,3.25
2023-04-16T10:15:39.813Z,2.50
2023-04-16T10:18:08.380Z,2.22
2023-04-16T10:20:37.874Z,1.90
2023-04-16T10:23:06.434Z,1.52
2023-04-16T10:25:35.134Z,1.85
2023-04-16T10:28:04.065Z,1.63
2023-04-16T10:30:32.603Z,1.67
2023-04-16T10:33:02.933Z,1.55
2023-04-16T10:35:31.432Z,1.98
2023-04-16T10:38:26.996Z,2.53
2023-04-16T10:41:03.752Z,3.03
2023-04-16T10:43:33.940Z,2.85
2023-04-16T10:46:30.857Z,2.78
2023-04-16T10:49:12.486Z,2.85
2023-04-16T10:51:41.310Z,2.30
2023-04-16T10:54:10.068Z,2.83
2023-04-16T10:56:38.430Z,2.70
2023-04-16T10:59:07.931Z,2.53
2023-04-16T11:01:41.184Z,2.30
2023-04-16T11:04:21.908Z,2.55
2023-04-16T11:07:32.758Z,2.20
2023-04-16T11:10:12.761Z,2.15
2023-04-16T11:12:47.087Z,2.35
2023-04-16T11:15:17.068Z,2.40
2023-04-16T11:17:47.891Z,1.98
2023-04-16T11:20:20.199Z,2.08
2023-04-16T11:22:50.673Z,1.73
2023-04-16T11:25:27.181Z,2.20
2023-04-16T11:27:55.660Z,2.42
2023-04-16T11:30:35.551Z,2.08
2023-04-16T11:33:08.528Z,1.77
2023-04-16T11:35:37.193Z,2.33
2023-04-16T11:38:08.668Z,2.13
2023-04-16T11:40:36.970Z,1.85
2023-04-16T11:43:17.128Z,2.53
2023-04-16T11:45:59.370Z,2.42
2023-04-16T11:48:49.010Z,2.40
2023-04-16T11:51:17.640Z,2.92
2023-04-16T11:53:50.762Z,1.80
2023-04-16T11:56:30.068Z,1.90
2023-04-16T11:59:09.369Z,2.30
2023-04-16T12:01:39.577Z,2.70
2023-04-16T12:04:08.932Z,2.70
2023-04-16T12:06:37.647Z,2.70
2023-04-16T12:09:26.187Z,2.83
2023-04-16T12:11:54.542Z,2.78
2023-04-16T12:14:24.092Z,2.70
2023-04-16T12:16:55.051Z,2.65
2023-04-16T12:19:23.446Z,2.70
2023-04-16T12:21:51.872Z,2.92
2023-04-16T12:24:21.025Z,3.05
2023-04-16T12:26:57.522Z,2.78
2023-04-16T12:29:27.850Z,3.13
2023-04-16T12:31:56.265Z,2.95
2023-04-16T12:34:29.021Z,2.60
2023-04-16T12:37:13.687Z,2.78
2023-04-16T12:39:42.765Z,2.85
2023-04-16T12:42:12.837Z,3.65
2023-04-16T12:44:41.247Z,2.97
2023-04-16T12:47:09.545Z,3.10
2023-04-16T12:49:38.152Z,3.53
2023-04-16T12:52:06.980Z,3.00
2023-04-16T12:54:35.345Z,3.03
2023-04-16T12:57:03.820Z,3.35
2023-04-16T12:59:32.046Z,3.05
2023-04-16T13:02:02.841Z,3.50
2023-04-16T13:04:31.292Z,3.40
2023-04-16T13:07:00.610Z,3.63
2023-04-16T13:09:28.945Z,3.15
2023-04-16T13:11:57.225Z,4.05
2023-04-16T13:14:26.269Z,3.78
2023-04-16T13:16:54.455Z,3.08
2023-04-16T13:19:22.743Z,2.80
2023-04-16T13:21:51.359Z,3.15
2023-04-16T13:24:19.706Z,2.90
2023-04-16T13:26:48.001Z,3.85
2023-04-16T13:29:16.285Z,3.22
2023-04-16T13:31:44.619Z,2.83
2023-04-16T13:34:12.904Z,2.80
2023-04-16T13:36:41.504Z,2.65
2023-04-16T13:39:12.694Z,3.92
2023-04-16T13:41:41.706Z,3.70
2023-04-16T13:44:09.967Z,3.42
2023-04-16T13:46:38.179Z,2.97
2023-04-16T13:49:06.836Z,2.40
2023-04-16T13:51:35.149Z,2.80
2023-04-16T13:54:03.486Z,3.00
2023-04-16T13:56:31.879Z,2.88
2023-04-16T13:59:00.704Z,2.70
2023-04-16T14:01:29.116Z,3.20
2023-04-16T14:03:57.415Z,3.67
2023-04-16T14:06:26.013Z,3.75
2023-04-16T14:08:54.244Z,3.08
2023-04-16T14:11:23.705Z,3.13
2023-04-16T14:13:51.941Z,3.30
2023-04-16T14:16:20.370Z,3.17
2023-04-16T14:18:48.660Z,3.08
2023-04-16T14:21:16.938Z,3.83
2023-04-16T14:23:45.424Z,3.63
2023-04-16T14:26:13.805Z,3.22
2023-04-16T14:28:43.404Z,3.78
2023-04-16T14:31:11.613Z,4.40
2023-04-16T14:33:39.851Z,3.67
2023-04-16T14:36:08.320Z,3.80
2023-04-16T14:38:36.881Z,4.22
2023-04-16T14:41:05.223Z,4.00
2023-04-16T14:43:36.969Z,4.00
2023-04-16T14:46:06.612Z,3.72
2023-04-16T14:48:34.894Z,3.72
2023-04-16T14:51:03.330Z,3.78
2023-04-16T14:53:32.011Z,4.68
2023-04-16T14:56:02.368Z,4.32
2023-04-16T14:58:31.219Z,4.35
2023-04-16T15:00:59.762Z,4.05
2023-04-16T15:03:28.489Z,3.83
2023-04-16T15:05:59.789Z,3.85
2023-04-16T15:08:28.020Z,4.32
2023-04-16T15:10:56.391Z,4.43
2023-04-16T15:13:24.629Z,4.43
2023-04-16T15:15:52.933Z,3.95
2023-04-16T15:18:21.320Z,4.38
2023-04-16T15:20:49.591Z,3.85
2023-04-16T15:23:17.843Z,4.00
2023-04-16T15:25:46.068Z,3.40
2023-04-16T15:28:14.480Z,4.32
2023-04-16T15:30:43.038Z,4.38
2023-04-16T15:33:12.764Z,4.28
2023-04-16T15:35:41.400Z,4.43
2023-04-16T15:38:10.002Z,4.35
2023-04-16T15:40:39.403Z,4.28
2023-04-16T15:43:07.992Z,3.92
2023-04-16T15:45:36.360Z,4.72
2023-04-16T15:48:07.643Z,4.00
2023-04-16T15:50:36.500Z,3.80
2023-04-16T15:53:05.284Z,3.75
2023-04-16T15:55:33.526Z,3.40
2023-04-16T15:58:01.757Z,3.30
2023-04-16T16:00:30.072Z,3.38
2023-04-16T16:02:58.414Z,3.65
2023-04-16T16:05:27.232Z,3.50
2023-04-16T16:07:55.649Z,3.67
2023-04-16T16:10:24.032Z,3.33
2023-04-16T16:12:52.214Z,3.03
2023-04-16T16:15:20.774Z,3.50
2023-04-16T16:17:48.998Z,3.42
2023-04-16T16:20:17.229Z,4.07
2023-04-16T16:22:46.847Z,3.75
2023-04-16T16:25:15.337Z,3.70
2023-04-16T16:27:43.572Z,3.65
2023-04-16T16:30:12.340Z,3.58
2023-04-16T16:32:41.233Z,3.45
2023-04-16T16:35:10.935Z,3.60
2023-04-16T16:37:39.584Z,3.67
2023-04-16T16:40:08.806Z,3.20
2023-04-16T16:42:37.035Z,3.28
2023-04-16T16:45:06.205Z,4.43
2023-04-16T16:47:34.780Z,2.83
2023-04-16T16:50:03.381Z,3.15
2023-04-16T16:52:32.237Z,3.03
2023-04-16T16:55:01.390Z,3.08
2023-04-16T16:57:29.618Z,2.63
2023-04-16T16:59:57.795Z,2.90
2023-04-16T17:02:26.082Z,2.35
2023-04-16T17:04:54.957Z,2.15
2023-04-16T17:07:23.261Z,2.08
2023-04-16T17:09:51.506Z,2.08
2023-04-16T17:12:19.794Z,1.55
2023-04-16T17:14:51.297Z,1.55
2023-04-16T17:17:20.022Z,1.67
2023-04-16T17:19:48.309Z,1.65
2023-04-16T17:22:16.693Z,1.25
2023-04-16T17:24:45.006Z,1.40
2023-04-16T17:27:13.283Z,1.77
2023-04-16T17:29:41.569Z,1.60
2023-04-16T17:32:09.944Z,1.85
2023-04-16T17:34:38.259Z,1.98
2023-04-16T17:37:06.522Z,1.65
2023-04-16T17:39:34.796Z,1.55
2023-04-16T17:42:04.059Z,1.65
2023-04-16T17:44:32.280Z,1.48
2023-04-16T17:47:00.494Z,1.52
2023-04-16T17:49:28.776Z,1.60
2023-04-16T17:51:57.559Z,1.10
2023-04-16T17:54:26.147Z,1.80
2023-04-16T17:56:54.433Z,1.38
2023-04-16T17:59:22.764Z,1.92
2023-04-16T18:01:51.083Z,1.50
2023-04-16T18:04:19.788Z,2.05
2023-04-16T18:06:48.573Z,2.38
2023-04-16T18:09:16.880Z,2.67
2023-04-16T18:11:45.799Z,2.40
2023-04-16T18:14:16.931Z,2.55
2023-04-16T18:16:47.792Z,3.25
2023-04-16T18:19:16.682Z,3.20
2023-04-16T18:21:45.172Z,3.45
2023-04-16T18:24:13.943Z,4.43
2023-04-16T18:26:42.512Z,4.55
2023-04-16T18:29:12.119Z,4.25
2023-04-16T18:31:41.972Z,4.40
2023-04-16T18:34:10.704Z,3.60
2023-04-16T18:36:39.050Z,3.25
2023-04-16T18:39:08.271Z,3.38
2023-04-16T18:41:36.694Z,4.10
2023-04-16T18:44:04.929Z,3.53
2023-04-16T18:46:33.284Z,3.75
2023-04-16T18:49:01.588Z,3.15
2023-04-16T18:51:29.943Z,3.42
2023-04-16T18:53:58.214Z,3.53
2023-04-16T18:56:28.787Z,3.47
2023-04-16T18:58:57.044Z,3.15
2023-04-16T19:01:25.736Z,2.90
2023-04-16T19:03:54.048Z,2.85
2023-04-16T19:06:22.306Z,3.38
2023-04-16T19:08:50.745Z,3.15
2023-04-16T19:11:19.076Z,2.80
2023-04-16T19:13:47.373Z,2.58
2023-04-16T19:16:15.859Z,2.85
2023-04-16T19:18:44.227Z,3.78
2023-04-16T19:21:12.444Z,3.15
2023-04-16T19:23:40.767Z,2.95
2023-04-16T19:26:09.103Z,3.13
2023-04-16T19:28:38.802Z,3.00
2023-04-16T19:31:07.176Z,2.90
2023-04-16T19:33:36.095Z,2.42
2023-04-16T19:36:04.696Z,2.13
2023-04-16T19:38:32.963Z,2.20
2023-04-16T19:41:01.305Z,2.30
2023-04-16T19:43:32.215Z,2.15
2023-04-16T19:46:00.533Z,2.05
2023-04-16T19:48:29.220Z,2.00
2023-04-16T19:51:01.156Z,1.80
2023-04-16T19:53:29.474Z,2.10
2023-04-16T19:55:57.645Z,2.35
2023-04-16T19:58:25.936Z,1.85
2023-04-16T20:00:54.208Z,2.00
2023-04-16T20:03:22.646Z,2.28
2023-04-16T20:05:51.129Z,1.83
2023-04-16T20:08:19.414Z,2.13
2023-04-16T20:10:47.704Z,2.00
2023-04-16T20:13:18.461Z,2.10
2023-04-16T20:15:47.308Z,2.33
2023-04-16T20:18:15.762Z,2.20
2023-04-16T20:20:43.992Z,2.00
2023-04-16T20:23:12.294Z,1.90
2023-04-16T20:25:44.391Z,2.00
2023-04-16T20:28:16.187Z,1.98
2023-04-16T20:30:44.475Z,1.52
2023-04-16T20:33:12.800Z,1.80
2023-04-16T20:35:41.079Z,2.00
2023-04-16T20:38:09.484Z,1.58
2023-04-16T20:40:38.822Z,1.90
2023-04-16T20:43:10.356Z,2.10
2023-04-16T20:45:40.878Z,1.95
2023-04-16T20:48:09.484Z,1.80
2023-04-16T20:50:37.866Z,1.30
2023-04-16T20:53:06.126Z,1.80
2023-04-16T20:55:34.341Z,1.90
2023-04-16T20:58:02.559Z,1.67
2023-04-16T21:00:30.794Z,1.80
2023-04-16T21:02:59.143Z,1.70
2023-04-16T21:05:30.085Z,1.48
2023-04-16T21:07:58.493Z,1.67
2023-04-16T21:10:26.741Z,2.08
2023-04-16T21:12:54.981Z,1.83
2023-04-16T21:15:23.224Z,1.80
2023-04-16T21:17:51.577Z,1.75
2023-04-16T21:20:19.967Z,1.55
2023-04-16T21:22:48.239Z,1.90
2023-04-16T21:25:16.524Z,1.40
2023-04-16T21:27:44.813Z,1.70
2023-04-16T21:30:13.860Z,1.88
2023-04-16T21:32:42.421Z,2.42
2023-04-16T21:35:10.962Z,1.65
2023-04-16T21:37:39.270Z,1.98
2023-04-16T21:40:08.159Z,1.48
2023-04-16T21:42:40.024Z,1.70
2023-04-16T21:45:10.243Z,1.90
2023-04-16T21:47:38.957Z,1.73
2023-04-16T21:50:07.793Z,1.60
2023-04-16T21:52:40.588Z,2.30
2023-04-16T21:55:09.817Z,1.80
2023-04-16T21:57:38.043Z,1.90
2023-04-16T22:00:14.345Z,2.20
2023-04-16T22:02:43.326Z,1.50
2023-04-16T22:05:12.674Z,1.38
2023-04-16T22:07:40.994Z,1.48
2023-04-16T22:10:09.720Z,1.80
2023-04-16T22:12:38.008Z,1.30
2023-04-16T22:15:10.340Z,1.50
2023-04-16T22:17:39.363Z,1.35
2023-04-16T22:20:13.496Z,1.15
2023-04-16T22:22:42.212Z,1.20
2023-04-16T22:25:11.417Z,1.02
2023-04-16T22:27:39.656Z,1.38
2023-04-16T22:30:09.368Z,1.25
2023-04-16T22:32:37.652Z,1.50
2023-04-16T22:35:06.542Z,1.38
2023-04-16T22:37:34.783Z,1.48
2023-04-16T22:40:03.136Z,1.63
2023-04-16T22:42:31.327Z,1.38
2023-04-16T22:44:59.647Z,1.90
2023-04-16T22:47:27.959Z,1.10
2023-04-16T22:49:56.217Z,1.55
2023-04-16T22:52:24.460Z,1.40
2023-04-16T22:54:52.759Z,1.58
2023-04-16T22:57:24.799Z,1.48
2023-04-16T22:59:53.378Z,1.55
2023-04-16T23:02:22.028Z,1.98
2023-04-16T23:04:50.441Z,1.73
2023-04-16T23:07:18.661Z,1.63
2023-04-16T23:09:46.993Z,1.83
2023-04-16T23:12:15.530Z,1.30
2023-04-16T23:14:46.022Z,1.73
2023-04-16T23:17:14.409Z,1.45
2023-04-16T23:19:42.685Z,1.75
2023-04-16T23:22:11.009Z,2.33
2023-04-16T23:24:39.238Z,1.67
2023-04-16T23:27:07.492Z,1.23
2023-04-16T23:29:35.685Z,1.90
2023-04-16T23:32:04.048Z,2.05
2023-04-16T23:34:32.270Z,2.72
2023-04-16T23:37:00.593Z,2.60
2023-04-16T23:39:28.926Z,2.40
2023-04-16T23:41:57.641Z,2.45
2023-04-16T23:44:25.899Z,3.03
2023-04-16T23:46:54.295Z,2.03
2023-04-16T23:49:22.806Z,2.15
2023-04-16T23:51:50.976Z,2.15
2023-04-16T23:54:19.504Z,2.10
2023-04-16T23:56:47.912Z,2.40
2023-04-16T23:59:16.886Z,1.75
